Time;durP1;ratioP1;P1;durP2;ratioP2;P2;SDS_P1;SDS_P2;PMS_P1;PMS_P2;Temp;Humidity;BMP_temperature;BMP_pressure;BME280_temperature;BME280_humidity;BME280_pressure;Samples;Min_cycle;Max_cycle;Signal;HPM_P1;HPM_P2
2023/06/16 00:00:19;;;;;;;4.45;2.72;;;;;;;21.20;51.94;101670.94;6207079;28;20299;-73
2023/06/16 00:03:41;;;;;;;3.40;3.10;;;;;;;21.24;51.76;101666.78;6222617;28;20258;-73
2023/06/16 00:07:02;;;;;;;4.80;3.42;;;;;;;21.41;51.38;101657.38;6212099;28;20253;-73
2023/06/16 00:10:23;;;;;;;3.60;3.08;;;;;;;21.34;51.52;101664.63;6210996;28;20620;-72
2023/06/16 00:13:46;;;;;;;3.38;3.08;;;;;;;21.32;51.63;101663.97;6215520;28;20232;-72
2023/06/16 00:17:08;;;;;;;3.38;2.67;;;;;;;21.36;51.62;101659.81;6219442;28;20542;-73
2023/06/16 00:20:29;;;;;;;3.00;2.70;;;;;;;21.33;51.99;101660.19;6214960;28;20233;-74
2023/06/16 00:23:50;;;;;;;6.00;3.53;;;;;;;21.32;51.55;101663.09;6221608;28;20263;-73
2023/06/16 00:27:12;;;;;;;4.20;3.00;;;;;;;21.34;51.67;101658.31;6223274;28;20500;-74
2023/06/16 00:30:35;;;;;;;5.07;2.80;;;;;;;21.58;51.49;101655.31;6219129;28;20232;-75
2023/06/16 00:33:56;;;;;;;4.03;3.63;;;;;;;21.59;51.28;101647.94;6216658;28;20244;-73
2023/06/16 00:37:17;;;;;;;2.75;2.55;;;;;;;21.41;52.30;101646.41;6219980;28;20230;-75
2023/06/16 00:40:38;;;;;;;4.32;3.03;;;;;;;21.34;52.32;101656.41;6223813;28;20225;-74
2023/06/16 00:43:59;;;;;;;3.05;2.80;;;;;;;21.38;52.73;101649.50;6221040;28;20315;-73
2023/06/16 00:47:21;;;;;;;6.20;2.78;;;;;;;21.24;53.07;101649.47;6218051;28;20232;-74
2023/06/16 00:50:43;;;;;;;3.83;3.08;;;;;;;21.20;53.27;101648.16;6218462;28;20236;-74
2023/06/16 00:54:04;;;;;;;3.85;3.13;;;;;;;21.22;53.70;101657.03;6222445;28;20252;-73
2023/06/16 00:57:25;;;;;;;3.20;2.83;;;;;;;21.23;53.71;101648.66;6218327;28;20262;-74
2023/06/16 01:00:46;;;;;;;2.80;2.60;;;;;;;21.36;53.71;101642.53;6217869;28;20236;-73
2023/06/16 01:04:12;;;;;;;4.18;2.78;;;;;;;21.33;53.58;101646.50;6220535;28;20225;-75
2023/06/16 01:07:40;;;;;;;3.97;2.80;;;;;;;21.36;53.70;101643.34;6217923;28;20506;-74
2023/06/16 01:11:07;;;;;;;2.90;2.70;;;;;;;21.27;54.01;101641.75;6218099;28;20240;-74
2023/06/16 01:14:37;;;;;;;3.88;3.58;;;;;;;21.19;54.33;101643.72;6213870;28;20240;-73
2023/06/16 01:18:01;;;;;;;4.82;3.63;;;;;;;21.15;54.72;101637.72;6219143;28;20236;-73
2023/06/16 01:21:49;;;;;;;5.68;3.80;;;;;;;21.21;54.64;101631.53;6194156;28;20252;-73
2023/06/16 01:25:14;;;;;;;3.40;3.10;;;;;;;21.14;55.00;101632.44;6200109;28;20753;-73
2023/06/16 01:28:36;;;;;;;3.83;2.67;;;;;;;21.12;55.17;101621.66;6216681;28;20252;-73
2023/06/16 01:32:01;;;;;;;2.80;2.60;;;;;;;21.11;55.43;101624.59;6193156;28;20228;-73
2023/06/16 01:35:23;;;;;;;3.65;2.90;;;;;;;21.15;55.76;101623.19;6185304;28;20248;-73
2023/06/16 01:38:47;;;;;;;3.70;2.80;;;;;;;21.21;55.67;101620.56;6222742;28;20248;-73
2023/06/16 01:42:11;;;;;;;2.80;2.58;;;;;;;21.02;56.12;101621.09;6191546;28;21586;-73
2023/06/16 01:45:33;;;;;;;4.70;2.65;;;;;;;20.95;56.07;101619.22;6228273;28;20243;-73
2023/06/16 01:48:54;;;;;;;6.88;2.88;;;;;;;20.81;55.67;101620.03;6216465;28;20240;-75
2023/06/16 01:52:15;;;;;;;3.20;2.47;;;;;;;20.83;56.33;101616.09;6200559;28;20237;-72
2023/06/16 01:55:36;;;;;;;2.72;2.53;;;;;;;20.79;56.58;101622.13;6212979;28;21681;-74
2023/06/16 01:58:58;;;;;;;4.53;3.00;;;;;;;20.85;56.51;101619.50;6211854;28;20241;-73
2023/06/16 02:02:20;;;;;;;2.92;2.72;;;;;;;20.86;56.39;101625.84;6214165;28;20315;-73
2023/06/16 02:05:45;;;;;;;5.03;3.45;;;;;;;20.90;56.65;101624.44;6188906;28;20232;-74
2023/06/16 02:09:09;;;;;;;3.20;2.50;;;;;;;20.83;56.61;101626.19;6210848;28;20268;-74
2023/06/16 02:12:32;;;;;;;4.25;3.17;;;;;;;20.70;56.61;101630.41;6204353;28;20388;-74
2023/06/16 02:15:55;;;;;;;5.70;3.63;;;;;;;20.78;56.80;101624.00;6208989;28;20701;-74
2023/06/16 02:19:16;;;;;;;4.68;3.05;;;;;;;20.76;56.83;101623.31;6209956;28;20236;-75
2023/06/16 02:22:36;;;;;;;2.60;2.40;;;;;;;20.82;56.69;101624.50;6208158;28;20236;-74
2023/06/16 02:25:57;;;;;;;3.67;3.45;;;;;;;20.82;56.93;101619.03;6221075;28;20551;-74
2023/06/16 02:29:18;;;;;;;3.28;3.05;;;;;;;20.79;56.82;101622.97;6220671;28;20550;-72
2023/06/16 02:32:41;;;;;;;3.47;2.83;;;;;;;20.75;56.64;101618.03;6213256;28;20244;-74
2023/06/16 02:36:02;;;;;;;3.40;3.10;;;;;;;20.68;57.01;101620.66;6206637;28;21122;-74
2023/06/16 02:39:26;;;;;;;6.25;3.47;;;;;;;20.81;56.84;101626.38;6197353;28;20544;-74
2023/06/16 02:42:49;;;;;;;3.65;2.85;;;;;;;21.08;56.44;101616.75;6205513;28;20259;-74
2023/06/16 02:46:10;;;;;;;3.22;2.92;;;;;;;21.13;55.89;101622.53;6202900;28;20231;-73
2023/06/16 02:49:33;;;;;;;3.05;2.20;;;;;;;20.98;56.46;101614.25;6212671;28;20602;-74
2023/06/16 02:52:55;;;;;;;3.00;2.80;;;;;;;20.90;57.11;101619.81;6202041;28;20228;-74
2023/06/16 02:56:16;;;;;;;4.15;3.42;;;;;;;20.94;57.17;101621.13;6210781;28;21871;-73
2023/06/16 02:59:37;;;;;;;3.40;2.92;;;;;;;20.65;57.35;101618.31;6211782;28;20235;-74
2023/06/16 03:02:58;;;;;;;4.07;2.75;;;;;;;20.54;57.83;101619.59;6194796;28;20315;-74
2023/06/16 03:06:20;;;;;;;4.78;3.50;;;;;;;20.54;58.29;101618.72;6211800;28;20239;-74
2023/06/16 03:09:42;;;;;;;6.03;2.80;;;;;;;20.47;58.41;101624.06;6200752;28;20240;-74
2023/06/16 03:13:05;;;;;;;6.07;5.45;;;;;;;20.36;58.91;101626.41;6211464;28;20228;-74
2023/06/16 03:16:27;;;;;;;4.20;3.72;;;;;;;20.49;58.50;101626.63;6195623;28;20227;-73
2023/06/16 03:19:51;;;;;;;4.70;4.18;;;;;;;20.56;58.28;101619.38;6222684;28;20232;-74
2023/06/16 03:23:21;;;;;;;3.15;2.88;;;;;;;20.34;58.49;101614.75;6210229;28;20299;-75
2023/06/16 03:26:42;;;;;;;4.55;3.30;;;;;;;20.29;58.42;101618.03;6211528;28;20236;-74
2023/06/16 03:30:12;;;;;;;3.67;3.05;;;;;;;20.33;58.75;101622.13;6217033;28;20239;-74
2023/06/16 03:33:52;;;;;;;4.25;3.10;;;;;;;20.12;59.22;101608.19;6219267;28;20240;-75
2023/06/16 03:37:13;;;;;;;4.63;3.25;;;;;;;20.30;58.99;101610.66;6184787;28;20558;-74
2023/06/16 03:40:37;;;;;;;5.03;4.63;;;;;;;20.40;59.06;101612.13;6201381;28;20256;-74
2023/06/16 03:43:58;;;;;;;6.38;4.28;;;;;;;20.13;59.57;101611.78;6211010;28;20236;-74
2023/06/16 03:47:19;;;;;;;4.00;2.88;;;;;;;19.83;60.52;101619.81;6200634;28;20228;-75
2023/06/16 03:50:41;;;;;;;4.45;4.05;;;;;;;20.05;60.77;101612.66;6208299;28;20236;-75
2023/06/16 03:54:02;;;;;;;6.57;4.68;;;;;;;20.04;61.28;101613.72;6206229;28;20694;-74
2023/06/16 03:57:25;;;;;;;4.60;4.03;;;;;;;19.82;62.91;101606.28;6187711;28;20323;-75
2023/06/16 04:00:46;;;;;;;15.18;4.68;;;;;;;19.66;63.59;101617.31;6202076;28;20239;-74
2023/06/16 04:04:09;;;;;;;4.93;4.18;;;;;;;19.36;64.94;101615.38;6201358;28;20613;-75
2023/06/16 04:07:30;;;;;;;5.55;4.80;;;;;;;19.43;65.34;101619.94;6211813;28;20620;-75
2023/06/16 04:10:57;;;;;;;5.78;4.43;;;;;;;19.21;66.05;101617.94;6192250;28;20233;-75
2023/06/16 04:14:19;;;;;;;4.72;4.32;;;;;;;19.27;66.03;101609.03;6199343;28;20271;-75
2023/06/16 04:17:41;;;;;;;5.38;4.80;;;;;;;19.74;65.12;101609.91;6222020;28;21157;-76
2023/06/16 04:21:02;;;;;;;5.85;5.30;;;;;;;19.71;65.18;101607.53;6211922;28;20248;-75
2023/06/16 04:24:24;;;;;;;7.68;6.10;;;;;;;19.91;64.40;101605.22;6206941;28;20256;-75
2023/06/16 04:27:49;;;;;;;5.47;4.25;;;;;;;20.08;63.85;101605.97;6216487;28;20228;-76
2023/06/16 04:31:12;;;;;;;6.25;5.65;;;;;;;19.72;64.20;101598.28;6189069;28;20228;-74
2023/06/16 04:34:36;;;;;;;8.40;4.55;;;;;;;19.76;64.27;101598.78;6209967;28;20264;-75
2023/06/16 04:37:57;;;;;;;5.47;4.10;;;;;;;19.94;63.68;101605.69;6204564;28;20252;-75
2023/06/16 04:41:19;;;;;;;5.18;4.25;;;;;;;20.13;62.86;101611.78;6226663;28;20555;-75
2023/06/16 04:44:41;;;;;;;4.68;3.95;;;;;;;20.28;62.50;101612.72;6205809;28;20231;-75
2023/06/16 04:48:04;;;;;;;4.53;3.97;;;;;;;20.30;61.77;101610.66;6214784;28;20324;-75
2023/06/16 04:51:26;;;;;;;9.02;5.07;;;;;;;20.41;61.97;101610.25;6212715;28;20760;-75
2023/06/16 04:54:49;;;;;;;7.40;5.00;;;;;;;20.37;63.00;101604.28;6212869;28;20362;-75
2023/06/16 04:58:12;;;;;;;5.13;4.38;;;;;;;20.36;62.86;101607.22;6216632;28;20323;-75
2023/06/16 05:01:33;;;;;;;4.28;3.97;;;;;;;20.28;62.28;101604.50;6203469;28;20236;-73
2023/06/16 05:04:56;;;;;;;6.20;5.22;;;;;;;20.33;62.10;101592.00;6212848;28;20625;-74
2023/06/16 05:08:18;;;;;;;6.45;4.75;;;;;;;20.21;62.58;101606.28;6213902;28;20232;-75
2023/06/16 05:11:39;;;;;;;9.50;5.43;;;;;;;20.60;62.12;101605.16;6208112;28;20594;-75
2023/06/16 05:15:00;;;;;;;6.43;5.78;;;;;;;20.69;61.78;101603.19;6207040;28;20533;-75
2023/06/16 05:18:22;;;;;;;5.80;5.13;;;;;;;20.56;61.99;101611.16;6225184;28;20622;-76
2023/06/16 05:21:44;;;;;;;6.60;5.93;;;;;;;20.56;61.98;101603.81;6213783;28;20272;-75
2023/06/16 05:25:06;;;;;;;5.90;5.20;;;;;;;20.67;62.33;101602.53;6206644;28;20243;-76
2023/06/16 05:28:28;;;;;;;5.53;5.03;;;;;;;20.96;62.76;101609.97;6202424;28;20244;-71
2023/06/16 05:31:50;;;;;;;6.40;5.80;;;;;;;20.87;62.24;101602.84;6210941;28;20229;-74
2023/06/16 05:35:12;;;;;;;11.45;6.88;;;;;;;20.82;62.42;101606.13;6203750;28;20240;-71
2023/06/16 05:38:35;;;;;;;6.00;5.05;;;;;;;20.99;62.34;101606.84;6206601;28;21453;-72
2023/06/16 05:41:56;;;;;;;8.20;5.43;;;;;;;20.99;62.31;101598.63;6215020;28;20229;-71
2023/06/16 05:45:17;;;;;;;6.18;5.65;;;;;;;20.88;62.64;101593.59;6214013;28;20243;-73
2023/06/16 05:48:39;;;;;;;5.53;5.03;;;;;;;21.16;61.79;101590.09;6217705;28;20622;-72
2023/06/16 05:52:01;;;;;;;7.53;6.63;;;;;;;20.90;62.22;101580.56;6195490;28;20229;-72
2023/06/16 05:55:24;;;;;;;6.35;5.78;;;;;;;21.08;62.14;101576.47;6207151;28;20251;-72
2023/06/16 05:58:50;;;;;;;7.65;5.40;;;;;;;21.08;61.49;101565.50;6213970;28;20233;-71
2023/06/16 06:02:11;;;;;;;6.40;5.75;;;;;;;21.18;61.88;101573.44;6182313;28;20630;-73
2023/06/16 06:05:32;;;;;;;5.75;4.88;;;;;;;21.37;61.30;101578.38;6211104;28;20231;-72
2023/06/16 06:08:54;;;;;;;6.32;5.57;;;;;;;20.98;61.79;101577.72;6210114;28;20740;-74
2023/06/16 06:12:18;;;;;;;5.07;4.57;;;;;;;21.15;60.42;101577.41;6202145;28;20598;-74
2023/06/16 06:15:39;;;;;;;7.25;5.15;;;;;;;20.54;60.83;101574.88;6213194;28;21032;-72
2023/06/16 06:19:04;;;;;;;5.63;5.13;;;;;;;20.42;60.54;101576.34;6209242;28;20236;-73
2023/06/16 06:22:31;;;;;;;6.47;4.20;;;;;;;20.28;61.17;101575.25;6215182;28;20610;-73
2023/06/16 06:25:52;;;;;;;5.10;4.28;;;;;;;20.58;61.57;101576.22;6196282;28;20870;-73
2023/06/16 06:29:17;;;;;;;8.43;4.38;;;;;;;20.73;61.06;101577.13;6205103;28;20236;-72
2023/06/16 06:32:38;;;;;;;5.63;5.07;;;;;;;20.91;60.44;101580.38;6230696;28;21400;-77
2023/06/16 06:35:59;;;;;;;4.55;4.18;;;;;;;21.08;60.28;101573.72;6206953;28;20236;-74
2023/06/16 06:39:21;;;;;;;5.40;4.90;;;;;;;21.20;60.07;101571.34;6208907;28;20276;-71
2023/06/16 06:42:43;;;;;;;7.57;4.78;;;;;;;21.17;60.29;101566.25;6230266;28;20323;-70
2023/06/16 06:46:21;;;;;;;6.38;5.85;;;;;;;21.49;60.42;101565.88;6203493;28;20232;-73
2023/06/16 06:49:42;;;;;;;6.13;5.53;;;;;;;21.58;60.81;101563.88;6213803;28;20235;-69
2023/06/16 06:53:03;;;;;;;5.90;5.40;;;;;;;21.55;61.52;101558.78;6223955;28;20232;-74
2023/06/16 06:56:24;;;;;;;5.93;5.07;;;;;;;21.91;61.30;101566.03;6218348;28;21175;-75
2023/06/16 06:59:45;;;;;;;6.78;6.18;;;;;;;21.38;62.22;101569.94;6209906;28;20227;-72
2023/06/16 07:03:07;;;;;;;6.03;5.18;;;;;;;21.56;61.68;101558.59;6217504;28;20236;-74
2023/06/16 07:06:28;;;;;;;7.40;4.70;;;;;;;21.71;60.87;101567.66;6195525;28;20252;-70
2023/06/16 07:09:48;;;;;;;7.53;5.45;;;;;;;21.88;60.57;101573.81;6210560;28;20265;-73
2023/06/16 07:13:09;;;;;;;6.05;5.03;;;;;;;21.96;60.16;101560.81;6220200;28;20228;-71
2023/06/16 07:16:30;;;;;;;7.28;5.25;;;;;;;21.35;62.09;101567.59;6210893;28;20324;-72
2023/06/16 07:19:52;;;;;;;9.65;6.93;;;;;;;21.37;62.39;101560.03;6202225;28;20235;-71
2023/06/16 07:23:13;;;;;;;6.32;5.13;;;;;;;21.70;62.42;101559.59;6228404;28;20629;-72
2023/06/16 07:26:34;;;;;;;6.80;5.93;;;;;;;21.83;62.82;101549.69;6232056;28;20236;-71
2023/06/16 07:29:55;;;;;;;7.43;6.13;;;;;;;21.67;62.78;101555.38;6218637;28;20267;-68
2023/06/16 07:33:16;;;;;;;6.30;5.80;;;;;;;22.03;61.22;101549.88;6229020;28;20594;-73
2023/06/16 07:36:38;;;;;;;7.03;5.30;;;;;;;21.92;61.47;101565.00;6232704;28;20236;-70
2023/06/16 07:39:59;;;;;;;5.57;5.18;;;;;;;22.35;61.17;101574.13;6207412;28;20228;-69
2023/06/16 07:43:21;;;;;;;5.15;4.75;;;;;;;22.69;60.27;101578.94;6222198;28;20232;-69
2023/06/16 07:46:45;;;;;;;4.93;4.43;;;;;;;22.55;59.34;101590.84;6229016;28;20236;-67
2023/06/16 07:50:08;;;;;;;7.03;5.65;;;;;;;22.84;58.43;101609.97;6206081;28;20307;-68
2023/06/16 07:53:31;;;;;;;4.32;3.95;;;;;;;22.86;57.81;101622.44;6222310;28;20260;-69
2023/06/16 07:56:52;;;;;;;5.53;5.03;;;;;;;22.93;57.75;101606.00;6228812;28;20228;-71
2023/06/16 08:00:15;;;;;;;7.53;4.97;;;;;;;22.27;59.21;101599.84;6208636;28;20327;-70
2023/06/16 08:03:35;;;;;;;9.00;5.93;;;;;;;22.20;60.04;101590.66;6224764;28;20232;-71
2023/06/16 08:06:57;;;;;;;5.15;4.65;;;;;;;21.78;62.55;101596.03;6226803;28;20237;-69
2023/06/16 08:10:20;;;;;;;5.28;4.88;;;;;;;22.20;61.92;101581.56;6217022;28;20263;-68
2023/06/16 08:13:40;;;;;;;8.73;4.90;;;;;;;22.62;60.97;101575.25;6204242;28;20228;-70
2023/06/16 08:17:01;;;;;;;7.10;6.30;;;;;;;22.72;60.79;101573.88;6209621;28;20236;-72
2023/06/16 08:20:22;;;;;;;6.35;5.70;;;;;;;22.09;62.66;101582.09;6208273;28;20244;-73
2023/06/16 08:23:43;;;;;;;7.13;6.10;;;;;;;22.08;63.94;101577.63;6223349;28;20260;-72
2023/06/16 08:27:06;;;;;;;5.68;5.18;;;;;;;22.65;62.98;101567.50;6227559;28;20237;-72
2023/06/16 08:30:27;;;;;;;7.72;7.00;;;;;;;22.64;63.38;101571.28;6222014;28;20236;-72
2023/06/16 08:33:50;;;;;;;6.45;5.70;;;;;;;23.11;61.60;101578.88;6236796;28;20224;-72
2023/06/16 08:37:11;;;;;;;6.63;5.70;;;;;;;22.95;61.38;101579.16;6200638;28;20240;-72
2023/06/16 08:40:32;;;;;;;6.72;6.13;;;;;;;22.75;60.58;101573.50;6215384;28;20324;-72
2023/06/16 08:43:56;;;;;;;5.18;4.68;;;;;;;22.70;61.23;101569.63;6229244;28;20233;-71
2023/06/16 08:47:17;;;;;;;5.72;5.22;;;;;;;22.82;60.59;101570.81;6230730;28;20229;-70
2023/06/16 08:50:38;;;;;;;5.75;4.70;;;;;;;22.88;60.32;101575.50;6225643;28;20237;-71
2023/06/16 08:54:03;;;;;;;5.60;5.20;;;;;;;22.93;60.00;101564.75;6227153;28;20236;-72
2023/06/16 08:57:25;;;;;;;5.57;5.18;;;;;;;22.95;59.96;101570.88;6228787;28;20228;-72
2023/06/16 09:00:48;;;;;;;6.60;5.43;;;;;;;22.94;60.85;101566.47;6223291;28;20267;-72
2023/06/16 09:04:09;;;;;;;6.30;5.65;;;;;;;22.96;60.84;101576.22;6220630;28;20284;-73
2023/06/16 09:07:30;;;;;;;6.50;5.85;;;;;;;23.00;60.83;101572.00;6221429;28;20256;-73
2023/06/16 09:10:54;;;;;;;6.80;5.05;;;;;;;23.12;61.18;101572.28;6234967;28;20247;-72
2023/06/16 09:14:16;;;;;;;7.15;6.45;;;;;;;23.02;61.67;101569.91;6222644;28;20228;-72
2023/06/16 09:17:39;;;;;;;6.15;5.57;;;;;;;22.84;62.10;101561.28;6244555;28;20228;-72
2023/06/16 09:21:00;;;;;;;5.75;5.25;;;;;;;22.58;62.30;101558.31;6233038;28;21258;-73
2023/06/16 09:24:26;;;;;;;5.53;5.05;;;;;;;22.19;63.02;101556.00;6222863;28;20345;-72
2023/06/16 09:27:50;;;;;;;7.82;5.30;;;;;;;22.08;62.75;101536.44;6233803;28;20596;-73
2023/06/16 09:31:12;;;;;;;5.05;4.55;;;;;;;21.90;62.54;101525.91;6234664;28;20243;-72
2023/06/16 09:34:37;;;;;;;5.20;4.70;;;;;;;21.80;63.39;101516.25;6221359;28;20259;-71
2023/06/16 09:38:00;;;;;;;5.70;5.05;;;;;;;21.53;64.49;101492.25;6225079;28;20229;-69
2023/06/16 09:41:21;;;;;;;6.75;5.28;;;;;;;21.63;65.09;101481.81;6230174;28;20315;-70
2023/06/16 09:44:42;;;;;;;7.25;5.68;;;;;;;21.69;65.98;101503.00;6215129;28;20769;-70
2023/06/16 09:48:04;;;;;;;5.85;5.35;;;;;;;22.14;65.41;101510.94;6231181;28;20248;-70
2023/06/16 09:51:26;;;;;;;4.75;4.10;;;;;;;22.42;63.82;101513.75;6188265;28;20232;-70
2023/06/16 09:54:48;;;;;;;5.40;4.80;;;;;;;22.62;62.74;101510.16;6210109;28;20236;-69
2023/06/16 09:58:09;;;;;;;6.55;5.03;;;;;;;22.82;61.72;101518.56;6229374;28;20232;-69
2023/06/16 10:01:30;;;;;;;5.60;4.30;;;;;;;22.93;61.27;101509.72;6216079;28;20248;-68
2023/06/16 10:04:53;;;;;;;6.70;4.90;;;;;;;23.05;61.37;101513.66;6202278;28;20731;-69
2023/06/16 10:08:17;;;;;;;5.28;4.78;;;;;;;23.01;61.28;101499.44;6222901;28;20228;-69
2023/06/16 10:11:39;;;;;;;5.68;4.22;;;;;;;23.38;60.44;101497.34;6209686;28;20581;-70
2023/06/16 10:15:03;;;;;;;6.57;4.78;;;;;;;23.63;58.47;101504.88;6216864;28;20267;-69
2023/06/16 10:18:25;;;;;;;7.47;4.78;;;;;;;23.95;58.52;101506.00;6226103;28;20240;-69
2023/06/16 10:21:46;;;;;;;4.72;4.32;;;;;;;23.78;58.78;101513.81;6218652;28;20233;-69
2023/06/16 10:25:10;;;;;;;6.05;4.40;;;;;;;23.75;59.85;101522.50;6208602;28;20232;-69
2023/06/16 10:28:31;;;;;;;5.85;4.32;;;;;;;23.47;60.42;101531.88;6236584;28;20689;-68
2023/06/16 10:32:03;;;;;;;5.53;4.10;;;;;;;23.41;60.50;101536.31;6214057;28;20323;-68
2023/06/16 10:35:24;;;;;;;5.47;4.97;;;;;;;22.48;62.21;101515.69;6216510;28;20251;-69
2023/06/16 10:38:55;;;;;;;6.65;4.55;;;;;;;21.95;64.65;101509.69;6223570;28;20320;-68
2023/06/16 10:42:17;;;;;;;4.43;4.03;;;;;;;22.14;64.70;101535.66;6208338;28;20228;-70
2023/06/16 10:45:39;;;;;;;5.53;5.03;;;;;;;22.54;64.34;101536.88;6224204;28;20618;-70
2023/06/16 10:49:14;;;;;;;5.63;4.07;;;;;;;22.79;62.97;101532.69;6225171;28;20269;-69
2023/06/16 10:52:52;;;;;;;4.93;4.40;;;;;;;23.14;62.28;101531.69;6214154;28;20228;-68
2023/06/16 10:56:13;;;;;;;8.82;4.47;;;;;;;23.08;62.13;101526.97;6209450;28;20228;-68
2023/06/16 10:59:56;;;;;;;4.32;3.75;;;;;;;23.16;61.72;101529.56;6210028;28;20236;-68
2023/06/16 11:03:17;;;;;;;4.10;3.70;;;;;;;23.76;60.52;101531.63;6208929;28;20309;-68
2023/06/16 11:07:10;;;;;;;4.53;4.13;;;;;;;23.73;60.71;101526.50;6224026;28;20232;-70
2023/06/16 11:10:47;;;;;;;7.00;3.75;;;;;;;23.62;60.57;101524.34;6216831;28;20236;-70
2023/06/16 11:14:08;;;;;;;4.22;3.85;;;;;;;23.67;60.58;101519.06;6213914;28;20229;-68
2023/06/16 11:17:31;;;;;;;3.95;3.65;;;;;;;23.55;61.14;101524.31;6214653;28;20228;-69
2023/06/16 11:20:56;;;;;;;4.30;3.90;;;;;;;23.48;60.87;101523.44;6210661;28;20229;-69
2023/06/16 11:24:19;;;;;;;4.10;3.70;;;;;;;23.51;60.86;101528.53;6213899;28;20530;-68
2023/06/16 11:27:40;;;;;;;4.60;4.13;;;;;;;23.29;62.14;101526.91;6221718;28;20236;-69
2023/06/16 11:31:01;;;;;;;9.05;3.97;;;;;;;23.47;61.87;101521.72;6215613;28;20228;-72
2023/06/16 11:34:25;;;;;;;3.92;3.63;;;;;;;23.36;61.40;101519.56;6204212;28;21720;-70
2023/06/16 11:37:48;;;;;;;3.83;3.53;;;;;;;23.29;61.60;101528.81;6206492;28;20535;-70
2023/06/16 11:41:15;;;;;;;5.53;3.80;;;;;;;23.24;61.57;101532.16;6209480;28;20362;-70
2023/06/16 11:44:36;;;;;;;6.70;3.75;;;;;;;23.47;61.91;101543.75;6202191;28;20228;-70
2023/06/16 11:47:59;;;;;;;7.10;5.45;;;;;;;23.43;61.85;101550.72;6224652;28;20241;-68
2023/06/16 11:51:23;;;;;;;5.55;3.53;;;;;;;23.39;62.51;101554.94;6216700;28;20263;-69
2023/06/16 11:54:45;;;;;;;7.30;4.80;;;;;;;23.26;62.56;101549.31;6214112;28;20259;-69
2023/06/16 11:58:05;;;;;;;5.22;4.43;;;;;;;23.09;63.07;101550.72;6232625;28;20232;-67
2023/06/16 12:01:26;;;;;;;7.63;4.55;;;;;;;23.02;64.31;101536.91;6223737;28;20263;-69
2023/06/16 12:04:48;;;;;;;7.22;4.32;;;;;;;23.01;64.82;101531.56;6207380;28;20620;-68
2023/06/16 12:08:10;;;;;;;4.20;3.90;;;;;;;22.90;64.89;101540.41;6213889;28;20227;-68
2023/06/16 12:11:32;;;;;;;6.93;5.53;;;;;;;22.74;66.42;101549.78;6222868;28;20255;-68
2023/06/16 12:14:55;;;;;;;4.50;4.07;;;;;;;22.64;67.53;101545.69;6214579;28;20236;-68
2023/06/16 12:18:16;;;;;;;4.28;3.92;;;;;;;22.89;68.39;101544.19;6215637;28;20236;-69
2023/06/16 12:21:38;;;;;;;8.27;4.25;;;;;;;22.92;68.73;101541.91;6220853;28;20342;-68
2023/06/16 12:25:00;;;;;;;7.38;4.32;;;;;;;23.01;68.62;101543.44;6207533;28;20236;-68
2023/06/16 12:28:21;;;;;;;14.10;4.63;;;;;;;22.89;67.64;101544.19;6217053;28;20248;-69
2023/06/16 12:31:52;;;;;;;5.07;4.57;;;;;;;22.86;67.36;101534.44;6219823;28;20236;-69
2023/06/16 12:35:23;;;;;;;5.15;4.55;;;;;;;22.71;67.57;101532.84;6217278;28;20232;-69
2023/06/16 12:38:44;;;;;;;4.45;4.05;;;;;;;22.89;66.92;101539.53;6220815;28;21146;-68
2023/06/16 12:42:07;;;;;;;7.35;5.22;;;;;;;22.81;67.01;101536.94;6207148;28;20581;-68
2023/06/16 12:45:29;;;;;;;5.90;4.65;;;;;;;22.70;67.57;101532.00;6220471;28;20319;-67
2023/06/16 12:48:50;;;;;;;5.30;4.75;;;;;;;22.76;68.18;101527.63;6199573;28;20241;-66
2023/06/16 12:52:12;;;;;;;4.03;3.72;;;;;;;23.00;67.58;101529.91;6195388;28;20586;-69
2023/06/16 12:55:33;;;;;;;5.32;4.82;;;;;;;22.46;68.58;101532.38;6207136;28;20653;-69
2023/06/16 12:58:56;;;;;;;5.45;3.92;;;;;;;22.57;68.54;101537.34;6205138;28;20260;-69
2023/06/16 13:02:16;;;;;;;5.43;4.85;;;;;;;22.56;68.94;101529.28;6200427;28;20604;-70
2023/06/16 13:05:37;;;;;;;6.15;4.70;;;;;;;22.53;68.76;101529.72;6207000;28;20252;-69
2023/06/16 13:08:58;;;;;;;4.18;3.78;;;;;;;22.60;69.08;101520.50;6204694;28;20245;-69
2023/06/16 13:12:19;;;;;;;5.20;4.70;;;;;;;22.63;69.78;101522.84;6197619;28;20256;-69
2023/06/16 13:15:41;;;;;;;4.03;3.63;;;;;;;23.07;69.08;101507.94;6203164;28;20274;-69
2023/06/16 13:19:02;;;;;;;5.10;4.13;;;;;;;23.39;67.54;101491.63;6197386;28;20674;-69
2023/06/16 13:22:23;;;;;;;4.68;4.25;;;;;;;23.26;67.20;101499.78;6202180;28;20845;-70
2023/06/16 13:25:44;;;;;;;4.82;4.25;;;;;;;24.47;65.10;101485.97;6199303;28;20232;-68
2023/06/16 13:29:05;;;;;;;4.40;3.97;;;;;;;25.24;62.26;101488.88;6194727;28;20236;-68
2023/06/16 13:32:28;;;;;;;6.63;3.53;;;;;;;24.17;62.15;101487.44;6199210;28;20771;-68
2023/06/16 13:35:49;;;;;;;3.67;3.38;;;;;;;24.30;61.34;101469.00;6198506;28;20247;-68
2023/06/16 13:39:10;;;;;;;3.55;3.22;;;;;;;25.66;58.70;101457.09;6200219;28;20307;-68
2023/06/16 13:42:31;;;;;;;5.38;3.30;;;;;;;26.93;54.59;101455.72;6197261;28;20228;-69
2023/06/16 13:45:52;;;;;;;3.55;3.25;;;;;;;26.89;53.19;101458.06;6204741;28;20866;-67
2023/06/16 13:49:14;;;;;;;4.07;3.63;;;;;;;25.70;55.36;101461.13;6199175;28;20254;-69
2023/06/16 13:52:36;;;;;;;4.13;3.55;;;;;;;25.66;55.96;101459.84;6207139;28;20371;-68
2023/06/16 13:55:57;;;;;;;3.50;3.17;;;;;;;27.25;52.97;101456.41;6197582;28;20240;-68
2023/06/16 13:59:19;;;;;;;3.83;2.95;;;;;;;26.79;51.99;101455.00;6205454;28;20243;-68
2023/06/16 14:02:40;;;;;;;4.22;3.30;;;;;;;26.56;52.10;101463.06;6199781;28;20323;-69
2023/06/16 14:06:02;;;;;;;4.05;3.10;;;;;;;26.99;52.27;101462.25;6199426;28;20228;-68
2023/06/16 14:09:23;;;;;;;5.55;3.22;;;;;;;27.16;51.34;101460.56;6209469;28;20292;-68
2023/06/16 14:12:44;;;;;;;4.00;3.08;;;;;;;26.63;52.68;101458.31;6211436;28;20240;-68
2023/06/16 14:16:05;;;;;;;4.20;3.80;;;;;;;26.16;53.46;101460.84;6209706;28;20236;-69
2023/06/16 14:19:26;;;;;;;3.67;3.28;;;;;;;25.89;53.50;101455.44;6209635;28;20738;-68
2023/06/16 14:22:48;;;;;;;3.20;3.00;;;;;;;25.68;54.21;101466.00;6205076;28;20228;-70
2023/06/16 14:26:08;;;;;;;3.45;3.15;;;;;;;26.18;53.19;101480.81;6207496;28;20240;-69
2023/06/16 14:29:29;;;;;;;3.10;2.58;;;;;;;26.04;52.73;101471.72;6211312;28;20236;-69
2023/06/16 14:32:50;;;;;;;3.65;3.30;;;;;;;25.62;52.38;101462.19;6205221;28;20232;-69
2023/06/16 14:36:11;;;;;;;3.10;2.90;;;;;;;25.54;52.49;101465.22;6205073;28;20240;-69
2023/06/16 14:39:34;;;;;;;4.35;3.00;;;;;;;25.58;52.45;101466.47;6205805;28;20240;-69
2023/06/16 14:42:54;;;;;;;5.00;4.50;;;;;;;25.96;52.49;101477.53;6206387;28;20240;-70
2023/06/16 14:46:15;;;;;;;5.60;3.38;;;;;;;25.82;52.92;101462.94;6208531;28;20228;-69
2023/06/16 14:49:36;;;;;;;4.38;3.28;;;;;;;25.24;54.58;101469.56;6207313;28;20240;-68
2023/06/16 14:52:57;;;;;;;4.05;3.65;;;;;;;24.58;56.62;101479.84;6200132;28;20241;-70
2023/06/16 14:56:19;;;;;;;3.97;3.50;;;;;;;24.08;57.35;101470.25;6211630;28;20244;-70
2023/06/16 14:59:41;;;;;;;5.32;4.07;;;;;;;24.15;58.77;101470.28;6203484;28;20363;-69
2023/06/16 15:03:02;;;;;;;5.28;3.78;;;;;;;24.58;57.87;101466.91;6215730;28;20237;-69
2023/06/16 15:06:24;;;;;;;4.95;3.92;;;;;;;24.95;57.68;101468.13;6211953;28;20359;-69
2023/06/16 15:09:45;;;;;;;7.03;3.85;;;;;;;24.87;58.28;101468.38;6208130;28;20259;-69
2023/06/16 15:13:07;;;;;;;4.90;3.70;;;;;;;25.03;58.22;101465.13;6213256;28;20762;-70
2023/06/16 15:16:29;;;;;;;4.95;4.40;;;;;;;24.80;59.29;101473.06;6215224;28;20272;-69
2023/06/16 15:19:50;;;;;;;4.40;4.07;;;;;;;24.48;59.85;101466.47;6219801;28;20232;-69
2023/06/16 15:23:11;;;;;;;7.28;5.18;;;;;;;24.64;59.20;101467.94;6221197;28;20228;-70
2023/06/16 15:26:33;;;;;;;8.20;5.28;;;;;;;24.31;59.02;101458.84;6218486;28;20244;-70
2023/06/16 15:29:56;;;;;;;4.90;4.13;;;;;;;24.57;58.97;101439.53;6218882;28;20228;-70
2023/06/16 15:33:17;;;;;;;5.43;4.82;;;;;;;24.87;58.00;101445.44;6511049;23;20625;-69
2023/06/16 15:36:38;;;;;;;4.35;3.80;;;;;;;25.18;57.03;101429.00;6242365;28;20660;-70
2023/06/16 15:39:59;;;;;;;4.00;3.67;;;;;;;24.92;56.17;101410.66;6232370;28;20516;-68